createdAt,value
2022-12-08T00:00:50.736Z,102.35999999999999
2022-12-08T00:05:56.054Z,117.18000000000002
2022-12-08T00:11:01.222Z,121.4
2022-12-08T00:16:06.508Z,123.14000000000001
2022-12-08T00:21:11.719Z,115.58
2022-12-08T00:26:16.943Z,91.66
2022-12-08T00:31:22.260Z,91.2
2022-12-08T00:36:27.395Z,85.62
2022-12-08T00:41:32.653Z,90.28
2022-12-08T00:46:37.883Z,107.98000000000002
2022-12-08T00:51:43.150Z,200.3
2022-12-08T00:56:53.364Z,166
2022-12-08T01:01:58.592Z,149.45999999999998
2022-12-08T01:07:03.812Z,166.45999999999998
2022-12-08T01:12:09.064Z,140.18
2022-12-08T01:17:14.416Z,144.2
2022-12-08T01:22:19.557Z,139.95999999999998
2022-12-08T01:27:24.765Z,139.88000000000002
2022-12-08T01:32:30.040Z,147.47999999999996
2022-12-08T01:37:35.404Z,128.7
2022-12-08T01:42:49.511Z,138.61999999999998
2022-12-08T01:47:57.760Z,148.56
2022-12-08T01:53:09.897Z,145.68
2022-12-08T01:58:19.143Z,162.34
2022-12-08T02:03:29.361Z,159.06
2022-12-08T02:08:36.595Z,154.42000000000002
2022-12-08T02:13:45.831Z,145.62
2022-12-08T02:19:29.306Z,152.54000000000002
2022-12-08T02:24:47.186Z,157.23999999999998
2022-12-08T02:30:07.629Z,145.94
2022-12-08T02:35:19.572Z,150.26
2022-12-08T02:40:31.804Z,133.18
2022-12-08T02:45:44.996Z,119.8
2022-12-08T02:50:51.242Z,122.46
2022-12-08T02:56:03.541Z,105.93999999999998
2022-12-08T03:01:19.755Z,93.17999999999999
2022-12-08T03:06:32.902Z,83.58000000000001
2022-12-08T03:11:48.165Z,73.2
2022-12-08T03:16:57.340Z,68.76
2022-12-08T03:22:05.575Z,62.4
2022-12-08T03:27:15.816Z,55
2022-12-08T03:32:27.050Z,57.339999999999996
2022-12-08T03:37:35.281Z,55.14
2022-12-08T03:42:40.472Z,47.32
2022-12-08T03:47:45.731Z,42.8
2022-12-08T03:52:50.971Z,45.7
2022-12-08T03:57:56.231Z,42.48
2022-12-08T04:03:01.534Z,41.8
2022-12-08T04:08:06.739Z,38.120000000000005
2022-12-08T04:13:11.889Z,40.12
2022-12-08T04:18:17.167Z,40.02
2022-12-08T04:23:22.396Z,44.67999999999999
2022-12-08T04:28:27.625Z,44.06
2022-12-08T04:33:32.852Z,45.459999999999994
2022-12-08T04:38:38.091Z,46.76
2022-12-08T04:43:43.338Z,53.98
2022-12-08T04:48:48.586Z,54.739999999999995
2022-12-08T04:53:53.820Z,54.67999999999999
2022-12-08T04:58:59.058Z,50.9
2022-12-08T05:04:04.334Z,53.919999999999995
2022-12-08T05:09:09.521Z,56.64
2022-12-08T05:14:15.732Z,57.720000000000006
2022-12-08T05:19:20.972Z,63.54
2022-12-08T05:24:26.215Z,75.44
2022-12-08T05:29:31.482Z,73.56
2022-12-08T05:34:36.699Z,75.82000000000001
2022-12-08T05:39:47.936Z,93.89999999999999
2022-12-08T05:44:53.137Z,91.11999999999999
2022-12-08T05:49:58.414Z,84.78
2022-12-08T05:55:03.652Z,69.32000000000001
2022-12-08T06:00:09.884Z,61.82000000000001
2022-12-08T06:05:15.114Z,81.55999999999999
2022-12-08T06:10:20.308Z,86.94
2022-12-08T06:15:25.613Z,183.02000000000004
2022-12-08T06:20:30.833Z,76.10000000000001
2022-12-08T06:25:36.081Z,79.28
2022-12-08T06:30:41.311Z,110.17999999999999
2022-12-08T06:35:46.531Z,98.11999999999999
2022-12-08T06:40:53.785Z,87.22
2022-12-08T06:45:59.010Z,90.47999999999999
2022-12-08T06:51:07.223Z,94.38000000000001
2022-12-08T06:56:16.480Z,88.91999999999999
2022-12-08T07:01:21.804Z,89.46000000000001
2022-12-08T07:06:27.902Z,81.52
2022-12-08T07:11:39.183Z,81.16
2022-12-08T07:16:44.570Z,80.16
2022-12-08T07:21:49.608Z,110.75999999999999
2022-12-08T07:26:54.862Z,99.79999999999998
2022-12-08T07:32:00.078Z,225.64000000000001
2022-12-08T07:37:05.330Z,128.76
2022-12-08T07:42:10.586Z,104.72
2022-12-08T07:47:15.813Z,85
2022-12-08T07:52:22.027Z,92.48
2022-12-08T07:57:30.280Z,114.63999999999999
2022-12-08T08:02:35.621Z,87.4
2022-12-08T08:07:41.803Z,108.52000000000001
2022-12-08T08:12:46.977Z,106.26000000000002
2022-12-08T08:17:53.256Z,112.5
2022-12-08T08:22:58.433Z,79.42
2022-12-08T08:28:03.710Z,81.28
2022-12-08T08:33:08.963Z,74.53999999999999
2022-12-08T08:38:14.186Z,99.7
2022-12-08T08:43:19.416Z,83.84
2022-12-08T08:48:24.636Z,77.14
2022-12-08T08:53:29.886Z,65.14
2022-12-08T08:58:35.118Z,56.8
2022-12-08T09:03:40.319Z,367.8
2022-12-08T09:08:45.596Z,215.35999999999999
2022-12-08T09:13:50.844Z,78.5
2022-12-08T09:18:56.040Z,69.64
2022-12-08T09:24:01.318Z,45.68000000000001
2022-12-08T09:29:06.595Z,43.66
2022-12-08T09:34:11.785Z,41.64
2022-12-08T09:39:17.046Z,35.5
2022-12-08T09:44:37.217Z,40.74
2022-12-08T09:49:49.477Z,37.96
2022-12-08T09:54:59.626Z,39.980000000000004
2022-12-08T10:00:07.259Z,43.43999999999999
2022-12-08T10:05:15.236Z,46.42
2022-12-08T10:10:30.317Z,52.68000000000001
2022-12-08T10:15:42.633Z,42.32
2022-12-08T10:20:49.769Z,39.02
2022-12-08T10:26:06.980Z,36.480000000000004
2022-12-08T10:31:16.331Z,35.3
2022-12-08T10:36:22.448Z,270.26
2022-12-08T10:41:31.691Z,337.08000000000004
2022-12-08T10:46:41.029Z,490.34
2022-12-08T10:51:54.130Z,478.75999999999993
2022-12-08T10:57:00.400Z,335.71999999999997
2022-12-08T11:07:22.816Z,106.42
2022-12-08T11:12:30.049Z,57.14
2022-12-08T11:17:40.273Z,47.42
2022-12-08T11:22:54.480Z,55.480000000000004
2022-12-08T11:28:00.729Z,42.980000000000004
2022-12-08T11:33:12.908Z,71.02000000000001
2022-12-08T11:38:21.887Z,57.96
2022-12-08T11:43:38.373Z,30.1
2022-12-08T11:48:50.583Z,46.839999999999996
2022-12-08T11:54:05.851Z,48.7
2022-12-08T11:59:20.000Z,35.36
2022-12-08T12:04:32.246Z,40.720000000000006
2022-12-08T12:09:48.431Z,37.06000000000001
2022-12-08T12:15:16.611Z,45.1
2022-12-08T12:20:25.880Z,40.64
2022-12-08T12:25:32.074Z,44.86
2022-12-08T12:30:52.361Z,46.42
2022-12-08T12:36:16.437Z,45.379999999999995
2022-12-08T12:41:25.491Z,32.28
2022-12-08T12:47:48.568Z,37.82
2022-12-08T12:54:20.748Z,40.720000000000006
2022-12-08T12:59:35.001Z,42.98
2022-12-08T13:04:41.224Z,35.88
2022-12-08T13:09:56.711Z,42.339999999999996
2022-12-08T13:15:05.657Z,28.939999999999998
2022-12-08T13:20:18.833Z,33.5
2022-12-08T13:26:28.994Z,38.760000000000005
2022-12-08T13:31:38.173Z,30.639999999999997
2022-12-08T13:37:00.347Z,25.68
2022-12-08T13:42:14.547Z,37.48
2022-12-08T13:47:34.213Z,30.560000000000002
2022-12-08T13:58:29.151Z,62
2022-12-08T14:04:04.314Z,35.6
2022-12-08T14:09:34.486Z,37.02
2022-12-08T14:15:01.186Z,48.88
2022-12-08T14:20:19.889Z,67.24000000000001
2022-12-08T14:25:35.362Z,76.1
2022-12-08T14:30:49.357Z,81.34
2022-12-08T14:35:56.528Z,77.41999999999999
2022-12-08T14:41:04.747Z,53.58
2022-12-08T14:46:22.008Z,42.08
2022-12-08T14:51:32.211Z,99.1
2022-12-08T14:56:41.410Z,106.43999999999998
2022-12-08T15:01:48.816Z,69.52000000000001
2022-12-08T15:06:55.845Z,87.50000000000001
2022-12-08T15:12:06.105Z,75.46
2022-12-08T15:17:41.239Z,81.47999999999999
2022-12-08T15:22:50.497Z,106.54
2022-12-08T15:27:56.699Z,104.05999999999999
2022-12-08T15:33:01.960Z,83.93999999999998
2022-12-08T15:38:08.280Z,48.480000000000004
2022-12-08T15:43:13.427Z,33.96
2022-12-08T15:48:19.666Z,41.60000000000001
2022-12-08T15:53:25.919Z,104.54
2022-12-08T15:58:53.059Z,127.44000000000001
2022-12-08T16:09:38.818Z,81.83999999999999
2022-12-08T16:20:20.113Z,67.49999999999999
2022-12-08T16:25:46.047Z,61.279999999999994
2022-12-08T16:31:16.660Z,64.91999999999999
2022-12-08T16:36:24.458Z,63.1
2022-12-08T16:41:29.657Z,56.839999999999996
2022-12-08T16:46:34.977Z,51.14
2022-12-08T16:51:42.185Z,53.32000000000001
2022-12-08T16:56:47.411Z,55.36
2022-12-08T17:01:52.641Z,150.82
2022-12-08T17:06:57.854Z,311.8
2022-12-08T17:12:04.335Z,140.12
2022-12-08T17:17:09.323Z,144.4
2022-12-08T17:22:14.606Z,104.03999999999999
2022-12-08T17:27:19.809Z,139.57999999999998
2022-12-08T17:32:25.128Z,110.26000000000002
2022-12-08T17:37:30.261Z,148.16
2022-12-08T17:42:35.526Z,125.58
2022-12-08T17:47:40.746Z,104.28
2022-12-08T17:52:49.960Z,142.04000000000002
2022-12-08T17:57:59.480Z,127.1
2022-12-08T18:03:04.493Z,88.26
2022-12-08T18:08:09.777Z,95.28000000000002
2022-12-08T18:13:14.914Z,118.52000000000001
2022-12-08T18:18:20.162Z,83.96
2022-12-08T18:23:25.431Z,92.2
2022-12-08T18:28:30.656Z,84.44000000000001
2022-12-08T18:33:35.900Z,84.24000000000001
2022-12-08T18:38:41.117Z,86.1
2022-12-08T18:43:46.347Z,101.02000000000001
2022-12-08T18:48:52.576Z,95.88000000000001
2022-12-08T18:53:58.803Z,86.8
2022-12-08T18:59:11.013Z,74.62
2022-12-08T19:04:29.806Z,86.58
2022-12-08T19:09:35.466Z,112.01999999999998
2022-12-08T19:14:40.753Z,117.42
2022-12-08T19:19:45.973Z,144.28000000000003
2022-12-08T19:24:51.202Z,116.46
2022-12-08T19:29:56.482Z,114.04
2022-12-08T19:35:01.670Z,190.48
2022-12-08T19:40:08.227Z,111.42
2022-12-08T19:45:15.170Z,85.83999999999999
2022-12-08T19:50:21.367Z,130.8
2022-12-08T19:55:26.596Z,125.01999999999998
2022-12-08T20:00:32.821Z,94.03999999999999
2022-12-08T20:05:40.091Z,95.48
2022-12-08T20:10:48.298Z,88.7
2022-12-08T20:15:53.616Z,96
2022-12-08T20:20:16.209Z,52.620000000000005
2022-12-08T20:25:21.161Z,67.9
2022-12-08T20:30:26.364Z,84.97999999999999
2022-12-08T20:35:31.576Z,117.78
2022-12-08T20:40:41.885Z,81.1
2022-12-08T20:45:47.225Z,76.43999999999998
2022-12-08T20:50:52.681Z,86.24000000000001
2022-12-08T20:55:59.763Z,63.82000000000001
2022-12-08T21:01:08.954Z,73.25999999999999
2022-12-08T21:06:21.115Z,85.36
2022-12-08T21:11:28.393Z,149.54000000000002
2022-12-08T21:16:38.806Z,111.18000000000002
2022-12-08T21:21:45.832Z,87.22
2022-12-08T21:26:51.876Z,81.52
2022-12-08T21:31:58.220Z,74.03999999999999
2022-12-08T21:37:03.429Z,104.4
2022-12-08T21:42:08.614Z,108.53999999999999
2022-12-08T21:47:13.979Z,94.34
2022-12-08T21:52:19.072Z,138.85999999999999
2022-12-08T21:57:24.316Z,166
2022-12-08T22:02:29.913Z,240.47999999999996
2022-12-08T22:07:37.872Z,161.62
2022-12-08T22:12:43.237Z,297.38
2022-12-08T22:17:48.571Z,157.92
2022-12-08T22:22:59.451Z,172.88
2022-12-08T22:28:05.916Z,166.04000000000002
2022-12-08T22:33:10.936Z,181.74
2022-12-08T22:38:16.155Z,195.3
2022-12-08T22:43:21.460Z,201.36
2022-12-08T22:48:27.632Z,187.54
2022-12-08T22:53:33.066Z,184.1
2022-12-08T22:58:38.235Z,185.06
2022-12-08T23:03:43.679Z,142.1
2022-12-08T23:08:48.810Z,206.43999999999997
2022-12-08T23:13:55.119Z,256.12
2022-12-08T23:19:00.157Z,209.26
2022-12-08T23:24:05.319Z,323.7
2022-12-08T23:29:10.803Z,256.14
2022-12-08T23:34:15.895Z,412.12
2022-12-08T23:39:21.097Z,402.62
2022-12-08T23:44:27.226Z,283.08000000000004
2022-12-08T23:49:32.474Z,365.41999999999996
2022-12-08T23:54:37.785Z,583.96
2022-12-08T23:59:43.111Z,246.64000000000001
